Terminal Aerodrome Forecast
Issued by NWS Wakefield, VA

Home | Current Version | Previous Version | Text Only | Print | Product List | Glossary On
Versions: 1 2 3 4 5 6 7 8 9 10 11 12 13 14
000
FTUS41 KAKQ 312340
TAFORF
TAF
KORF 312340Z 0100/0124 20005KT P6SM VCSH SCT025 OVC070
      TEMPO 0100/0104 OVC015
     FM010400 00000KT P6SM OVC025
     FM010800 00000KT 4SM BR OVC015
     FM011500 03005KT P6SM BKN050=

USA.gov is the U.S. government's official web portal to all federal, state and local government web resources and services.